Nordkinn — OZ2080 — position and weather

sailwx.info

Track history (hours):
 
Tides and Currents Weather Stations Pressure Air Temp Water Temp Dewpoint Dewpoint Depression Visibility Wind Speed Wind Dir Waves Ship Positions

Nordkinn

Last reported at 2017-Dec-11 17:00 UTC. Time now 2017-Dec-12 12:29 UTC.
Position N 61°13' E 004°42'.

Length 80 m; draft 5.4 m.

Type: Cargo ship. MMSI: 231711000.

Date/timePositionNaut miles runAvg speedWind from/ knotsBaromVisibWave heightAir tempDewpointWater temp
2017-Dec-11 17:00N 61°13' E 004°42'815.1
2017-Dec-11 16:30N 61°06' E 004°44'714.9
2017-Dec-11 16:00N 60°58' E 004°45'715.1
2017-Dec-11 15:30N 60°51' E 004°46'714.9
2017-Dec-11 15:00N 60°44' E 004°49'816.0
2017-Dec-11 14:30N 60°36' E 004°54'815.5
2017-Dec-11 14:00N 60°29' E 004°60'815.1
2017-Dec-11 13:30N 60°23' E 005°10'4 8.8
2017-Dec-11 13:00N 60°23' E 005°19'0 0.0
2017-Dec-11 12:30N 60°23' E 005°19'0 0.0
2017-Dec-11 12:00N 60°23' E 005°19'0 0.0
2017-Dec-11 11:29N 60°23' E 005°19'0 0.0
2017-Dec-11 10:59N 60°23' E 005°19'0 0.0
2017-Dec-11 10:30N 60°23' E 005°19'0 0.0
2017-Dec-11 10:00N 60°23' E 005°19'0 0.2
2017-Dec-11 09:30N 60°23' E 005°19'4 8.7
2017-Dec-11 09:00N 60°22' E 005°10'714.0
2017-Dec-11 08:30N 60°15' E 005°10'815.1
2017-Dec-11 07:59N 60°08' E 005°17'715.2
2017-Dec-11 07:30N 60°01' E 005°20'815.3
2017-Dec-11 07:00N 59°55' E 005°30'815.2
2017-Dec-11 06:30N 59°48' E 005°33'713.6
2017-Dec-11 06:00N 59°42' E 005°26'713.8
2017-Dec-11 05:30N 59°37' E 005°17'713.6
2017-Dec-11 05:00N 59°30' E 005°13'714.0
2017-Dec-11 04:30N 59°24' E 005°17'3 7.0
2017-Dec-11 04:00N 59°20' E 005°18'0 0.0
2017-Dec-11 03:30N 59°20' E 005°18'0 0.0
2017-Dec-11 03:00N 59°20' E 005°18'0 0.9
2017-Dec-11 02:30N 59°20' E 005°19'2 4.8
2017-Dec-11 02:01N 59°18' E 005°20'713.6
2017-Dec-11 01:30N 59°11' E 005°22'713.5
2017-Dec-11 01:00N 59°06' E 005°31'714.3
2017-Dec-11 00:31N 59°01' E 005°41'5 9.8
2017-Dec-11 00:00N 58°58' E 005°48'611.2
2017-Dec-10 23:30N 58°52' E 005°45'0 0.0
2017-Dec-10 23:00N 58°52' E 005°45'0 0.0
2017-Dec-10 22:30N 58°52' E 005°45'0 0.0
2017-Dec-10 21:59N 58°52' E 005°45'0 0.0
2017-Dec-10 21:30N 58°52' E 005°45'4 7.5
2017-Dec-10 21:00N 58°56' E 005°46'612.2
2017-Dec-10 20:30N 59°02' E 005°45'612.3
2017-Dec-10 20:00N 59°02' E 005°33'714.4
2017-Dec-10 19:30N 58°55' E 005°33'713.9
2017-Dec-10 19:00N 58°48' E 005°28'713.7
2017-Dec-10 18:30N 58°42' E 005°29'714.7
2017-Dec-10 18:00N 58°35' E 005°35'714.0
2017-Dec-10 17:30N 58°29' E 005°42'714.8
2017-Dec-10 17:00N 58°24' E 005°52'814.7
2017-Dec-10 16:30N 58°19' E 006°03'815.2
2017-Dec-10 16:00N 58°14' E 006°14'714.7
2017-Dec-10 15:30N 58°09' E 006°24'815.3
2017-Dec-10 15:00N 58°04' E 006°35'715.0
2017-Dec-10 14:30N 58°01' E 006°47'714.9
2017-Dec-10 14:00N 57°58' E 007°01'815.1
2017-Dec-10 13:30N 57°56' E 007°14'815.8
2017-Dec-10 13:00N 57°57' E 007°29'815.3
2017-Dec-10 12:30N 57°58' E 007°43'815.1
2017-Dec-10 12:00N 58°01' E 007°57'611.9
2017-Dec-10 11:30N 58°06' E 008°03'3 6.8
2017-Dec-10 11:00N 58°09' E 008°02'0 0.0
2017-Dec-10 10:29N 58°09' E 008°02'0 0.0
2017-Dec-10 10:00N 58°09' E 008°02'0 0.0
2017-Dec-10 09:30N 58°09' E 008°02'0 0.0
2017-Dec-10 09:00N 58°09' E 008°02'0 0.3
2017-Dec-10 08:30N 58°09' E 008°02'612.2
2017-Dec-10 08:00N 58°04' E 008°08'815.1
2017-Dec-10 07:30N 58°07' E 008°21'815.3
2017-Dec-10 07:00N 58°12' E 008°33'815.9
2017-Dec-10 06:30N 58°16' E 008°46'816.3
2017-Dec-10 06:00N 58°21' E 008°58'816.5
2017-Dec-10 05:30N 58°26' E 009°11'815.9
2017-Dec-10 05:00N 58°31' E 009°23'815.5
2017-Dec-10 04:30N 58°35' E 009°35'815.4
2017-Dec-10 04:00N 58°40' E 009°47'815.0
2017-Dec-10 03:30N 58°44' E 009°59'714.9
2017-Dec-10 03:00N 58°49' E 010°10'815.3
2017-Dec-10 02:30N 58°53' E 010°22'815.5
2017-Dec-10 02:00N 58°58' E 010°34'714.7
2017-Dec-10 01:30N 59°02' E 010°46'612.7
2017-Dec-10 01:00N 59°02' E 010°58'714.5
2017-Dec-10 00:30N 59°09' E 010°58'2 4.1
2017-Dec-10 00:01N 59°11' E 010°57'0 0.0
2017-Dec-09 23:31N 59°11' E 010°57'0 0.0
2017-Dec-09 23:00N 59°11' E 010°57'0 0.0
2017-Dec-09 22:31N 59°11' E 010°57'0 0.0
2017-Dec-09 22:01N 59°11' E 010°57'0 0.0
2017-Dec-09 21:31N 59°11' E 010°57'0 0.0
2017-Dec-09 21:01N 59°11' E 010°57'0 0.0
2017-Dec-09 20:30N 59°11' E 010°57'0 0.1
2017-Dec-09 20:00N 59°11' E 010°57'0 0.0
2017-Dec-09 19:31N 59°11' E 010°57'0 0.0
2017-Dec-09 19:01N 59°11' E 010°57'0 0.0
2017-Dec-09 18:30N 59°11' E 010°57'0 0.0
2017-Dec-09 18:01N 59°11' E 010°57'0 0.0
2017-Dec-09 17:31N 59°11' E 010°57'0 0.0
2017-Dec-09 17:01N 59°11' E 010°57'0 0.0
2017-Dec-09 16:30N 59°11' E 010°57'0 0.0
2017-Dec-09 16:00N 59°11' E 010°57'0 0.0
2017-Dec-09 15:30N 59°11' E 010°57'0 0.0
2017-Dec-09 15:00N 59°11' E 010°57'0 0.0
2017-Dec-09 14:31N 59°11' E 010°57'0 0.0
2017-Dec-09 14:01N 59°11' E 010°57'0 0.0
2017-Dec-09 13:30N 59°11' E 010°57'0 0.2
2017-Dec-09 13:00N 59°11' E 010°57'0 0.8
2017-Dec-09 12:31N 59°11' E 010°57'2 3.2
2017-Dec-09 12:00N 59°09' E 010°58'713.9
2017-Dec-09 11:30N 59°02' E 010°58'713.3
2017-Dec-09 11:01N 58°56' E 011°03'714.1
2017-Dec-09 10:30N 58°49' E 011°05'714.3
2017-Dec-09 10:01N 58°42' E 011°01'714.9
2017-Dec-09 09:30N 58°35' E 010°57'815.0
2017-Dec-09 09:00N 58°28' E 010°56'714.5
2017-Dec-09 08:30N 58°21' E 011°00'714.5
2017-Dec-09 08:01N 58°14' E 011°04'714.3
2017-Dec-09 07:31N 58°07' E 011°08'714.0
2017-Dec-09 07:00N 58°00' E 011°11'713.8
2017-Dec-09 06:30N 57°53' E 011°14'613.0
2017-Dec-09 06:01N 57°47' E 011°16'713.1
2017-Dec-09 05:30N 57°41' E 011°20'612.7
2017-Dec-09 05:00N 57°35' E 011°23'713.0
2017-Dec-09 04:31N 57°29' E 011°27'713.3
2017-Dec-09 04:01N 57°22' E 011°31'714.0
2017-Dec-09 03:30N 57°16' E 011°35'713.6
2017-Dec-09 03:00N 57°09' E 011°39'63 1.4
2017-Dec-07 06:42N 56°09' E 012°10'212.2
2017-Dec-07 06:30N 56°10' E 012°14'611.9
2017-Dec-07 06:00N 56°10' E 012°24'612.9
2017-Dec-07 05:30N 56°07' E 012°34'612.7
2017-Dec-07 05:01N 56°02' E 012°40'713.3
2017-Dec-07 04:31N 55°55' E 012°44'713.3
2017-Dec-07 04:00N 55°49' E 012°43'713.4
2017-Dec-07 03:30N 55°42' E 012°41'612.3
2017-Dec-07 03:00N 55°36' E 012°42'612.2
2017-Dec-07 02:30N 55°30' E 012°42'713.2
2017-Dec-07 02:00N 55°23' E 012°41'611.2
2017-Dec-07 01:30N 55°18' E 012°44'712.7
2017-Dec-07 00:57N 55°15' E 012°55'611.6
2017-Dec-07 00:29N 55°11' E 013°02'2813.0
2017-Dec-06 22:21N 54°49' E 013°31'612.7
2017-Dec-06 21:53N 54°44' E 013°37'  
2017-Dec-04 08:19N 55°04' E 012°46'514.9
2017-Dec-04 07:57N 55°09' E 012°42'614.5
2017-Dec-04 07:31N 55°15' E 012°38'714.5
2017-Dec-04 07:01N 55°22' E 012°40'714.6
2017-Dec-04 06:30N 55°30' E 012°42'713.7
2017-Dec-04 06:00N 55°36' E 012°42'714.1
2017-Dec-04 05:30N 55°43' E 012°41'714.6
2017-Dec-04 05:01N 55°51' E 012°41'714.3
2017-Dec-04 04:30N 55°58' E 012°38'713.5
2017-Dec-04 04:00N 56°04' E 012°36'815.2
2017-Dec-04 03:30N 56°09' E 012°26'6414.5
2017-Dec-03 23:07N 57°07' E 011°38'214.3
2017-Dec-03 22:59N 57°09' E 011°37'714.8
2017-Dec-03 22:30N 57°16' E 011°32'714.9
2017-Dec-03 22:00N 57°23' E 011°27'714.6
2017-Dec-03 21:31N 57°29' E 011°21'714.2
2017-Dec-03 21:01N 57°34' E 011°12'714.8
2017-Dec-03 20:30N 57°39' E 011°01'714.9
2017-Dec-03 20:00N 57°44' E 010°51'714.9
2017-Dec-03 19:30N 57°47' E 010°38'815.9
2017-Dec-03 19:00N 57°48' E 010°23'6315.1
2017-Dec-03 14:49N 57°53' E 008°24'514.0
2017-Dec-03 14:29N 57°53' E 008°16'714.5
2017-Dec-03 14:00N 57°54' E 008°02'714.3
2017-Dec-03 13:30N 57°54' E 007°49'714.9
2017-Dec-03 13:00N 57°55' E 007°35'815.3
2017-Dec-03 12:29N 57°56' E 007°21'715.4
2017-Dec-03 12:00N 57°57' E 007°07'815.6
2017-Dec-03 11:30N 57°59' E 006°53'815.5
2017-Dec-03 11:01N 58°02' E 006°40'815.6
2017-Dec-03 10:30N 58°07' E 006°27'816.2
2017-Dec-03 10:00N 58°13' E 006°17'815.5
2017-Dec-03 09:30N 58°18' E 006°07'713.8
2017-Dec-03 09:00N 58°24' E 005°60'2 4.8
2017-Dec-03 08:30N 58°26' E 005°59'0 0.0
2017-Dec-03 08:00N 58°26' E 005°59'0 0.0
2017-Dec-03 07:30N 58°26' E 005°59'0 0.0
2017-Dec-03 07:00N 58°26' E 005°59'0 0.0
2017-Dec-03 06:30N 58°26' E 005°59'0 0.0
2017-Dec-03 06:00N 58°26' E 005°59'0 0.0
2017-Dec-03 05:30N 58°26' E 005°59'0 0.0
2017-Dec-03 05:00N 58°26' E 005°59'0 0.0
2017-Dec-03 04:30N 58°26' E 005°59'0 0.0
2017-Dec-03 04:00N 58°26' E 005°59'0 0.0
2017-Dec-03 03:30N 58°26' E 005°59'0 0.0
2017-Dec-03 03:00N 58°26' E 005°59'0 0.0
2017-Dec-03 02:30N 58°26' E 005°59'0 0.0
2017-Dec-03 02:00N 58°26' E 005°59'3 6.9
2017-Dec-03 01:30N 58°23' E 005°59'714.3
2017-Dec-03 01:00N 58°26' E 005°47'815.2
2017-Dec-03 00:30N 58°31' E 005°36'815.5
2017-Dec-03 00:00N 58°38' E 005°29'815.3
2017-Dec-02 23:30N 58°45' E 005°25'714.4
2017-Dec-02 23:01N 58°52' E 005°30'815.2
2017-Dec-02 22:30N 58°59' E 005°33'5 9.1
2017-Dec-02 22:00N 59°01' E 005°41'510.1
2017-Dec-02 21:30N 58°58' E 005°48'611.5
2017-Dec-02 21:00N 58°52' E 005°45'0 0.0
2017-Dec-02 20:30N 58°52' E 005°45'0 0.0
2017-Dec-02 20:00N 58°52' E 005°45'0 0.0
2017-Dec-02 19:30N 58°52' E 005°45'1 2.4
2017-Dec-02 19:00N 58°53' E 005°46'714.1
2017-Dec-02 18:30N 59°00' E 005°48'611.5
2017-Dec-02 18:00N 59°02' E 005°37'714.4
2017-Dec-02 17:30N 59°07' E 005°27'612.5
2017-Dec-02 17:00N 59°12' E 005°21'714.0
2017-Dec-02 16:30N 59°19' E 005°19'1 2.0
2017-Dec-02 16:00N 59°20' E 005°18'0 0.9
2017-Dec-02 15:30N 59°20' E 005°19'613.0
2017-Dec-02 15:00N 59°26' E 005°14'714.0
2017-Dec-02 14:30N 59°33' E 005°12'814.9
2017-Dec-02 14:00N 59°39' E 005°20'815.4
2017-Dec-02 13:30N 59°45' E 005°30'713.6
2017-Dec-02 13:00N 59°52' E 005°33'612.7
2017-Dec-02 12:30N 59°57' E 005°26'612.7
2017-Dec-02 12:00N 60°02' E 005°19'713.6
2017-Dec-02 11:30N 60°09' E 005°16'713.6
2017-Dec-02 11:00N 60°15' E 005°09'713.6
2017-Dec-02 10:30N 60°22' E 005°10'613.1
2017-Dec-02 10:00N 60°27' E 005°01'713.4
2017-Dec-02 09:30N 60°33' E 004°56'713.1
2017-Dec-02 09:00N 60°39' E 004°51'713.8
2017-Dec-02 08:30N 60°45' E 004°46'510.7
2017-Dec-02 08:00N 60°51' E 004°48'714.6
2017-Dec-02 07:30N 60°49' E 005°03'2 3.7
2017-Dec-02 07:00N 60°48' E 005°05'611.5
2017-Dec-02 06:30N 60°51' E 004°55'611.8
2017-Dec-02 06:00N 60°55' E 004°46'713.7
2017-Dec-02 05:29N 61°02' E 004°45'612.6
2017-Dec-02 05:00N 61°08' E 004°45'713.0
2017-Dec-02 04:30N 61°14' E 004°43'613.0
2017-Dec-02 04:00N 61°20' E 004°48'612.8
2017-Dec-02 03:30N 61°26' E 004°53'713.3
2017-Dec-02 03:00N 61°32' E 005°00'612.4
2017-Dec-02 02:30N 61°38' E 004°59'612.8
2017-Dec-02 02:00N 61°45' E 004°59'713.6
2017-Dec-02 01:30N 61°49' E 005°10'4 7.2
2017-Dec-02 01:00N 61°53' E 005°10'4 7.6
2017-Dec-02 00:30N 61°56' E 005°08'0 0.0
2017-Dec-02 00:00N 61°56' E 005°08'0 0.0
2017-Dec-01 23:30N 61°56' E 005°08'0 0.3
2017-Dec-01 22:59N 61°56' E 005°09'510.2
2017-Dec-01 22:29N 62°02' E 005°09'713.6
2017-Dec-01 22:00N 62°08' E 005°05'511.1
2017-Dec-01 21:30N 62°13' E 005°09'713.1
2017-Dec-01 21:00N 62°16' E 005°21'713.4
2017-Dec-01 20:30N 62°19' E 005°34'3 5.9
2017-Dec-01 20:00N 62°19' E 005°40'0 0.0
2017-Dec-01 19:30N 62°19' E 005°40'0 0.0
2017-Dec-01 19:00N 62°19' E 005°40'0 0.0
2017-Dec-01 18:30N 62°19' E 005°40'0 0.0
2017-Dec-01 18:00N 62°19' E 005°40'1 2.6
2017-Dec-01 17:31N 62°19' E 005°43'  
Track history (hours):
 
Tides and Currents Weather Stations Pressure Air Temp Water Temp Dewpoint Dewpoint Depression Visibility Wind Speed Wind Dir Waves Ship Positions

Nordkinn

Last reported at 2017-Dec-11 17:00 UTC. Time now 2017-Dec-12 12:29 UTC.
Position N 61°13' E 004°42'.

Length 80 m; draft 5.4 m.

Type: Cargo ship. MMSI: 231711000.

Date/timePositionNaut miles runAvg speedWind from/ knotsBaromVisibWave heightAir tempDewpointWater temp
2017-Dec-11 17:00N 61°13' E 004°42'815.1
2017-Dec-11 16:30N 61°06' E 004°44'714.9
2017-Dec-11 16:00N 60°58' E 004°45'715.1
2017-Dec-11 15:30N 60°51' E 004°46'714.9
2017-Dec-11 15:00N 60°44' E 004°49'816.0
2017-Dec-11 14:30N 60°36' E 004°54'815.5
2017-Dec-11 14:00N 60°29' E 004°60'815.1
2017-Dec-11 13:30N 60°23' E 005°10'4 8.8
2017-Dec-11 13:00N 60°23' E 005°19'0 0.0
2017-Dec-11 12:30N 60°23' E 005°19'0 0.0
2017-Dec-11 12:00N 60°23' E 005°19'0 0.0
2017-Dec-11 11:29N 60°23' E 005°19'0 0.0
2017-Dec-11 10:59N 60°23' E 005°19'0 0.0
2017-Dec-11 10:30N 60°23' E 005°19'0 0.0
2017-Dec-11 10:00N 60°23' E 005°19'0 0.2
2017-Dec-11 09:30N 60°23' E 005°19'4 8.7
2017-Dec-11 09:00N 60°22' E 005°10'714.0
2017-Dec-11 08:30N 60°15' E 005°10'815.1
2017-Dec-11 07:59N 60°08' E 005°17'715.2
2017-Dec-11 07:30N 60°01' E 005°20'815.3
2017-Dec-11 07:00N 59°55' E 005°30'815.2
2017-Dec-11 06:30N 59°48' E 005°33'713.6
2017-Dec-11 06:00N 59°42' E 005°26'713.8
2017-Dec-11 05:30N 59°37' E 005°17'713.6
2017-Dec-11 05:00N 59°30' E 005°13'714.0
2017-Dec-11 04:30N 59°24' E 005°17'3 7.0
2017-Dec-11 04:00N 59°20' E 005°18'0 0.0
2017-Dec-11 03:30N 59°20' E 005°18'0 0.0
2017-Dec-11 03:00N 59°20' E 005°18'0 0.9
2017-Dec-11 02:30N 59°20' E 005°19'2 4.8
2017-Dec-11 02:01N 59°18' E 005°20'713.6
2017-Dec-11 01:30N 59°11' E 005°22'713.5
2017-Dec-11 01:00N 59°06' E 005°31'714.3
2017-Dec-11 00:31N 59°01' E 005°41'5 9.8
2017-Dec-11 00:00N 58°58' E 005°48'611.2
2017-Dec-10 23:30N 58°52' E 005°45'0 0.0
2017-Dec-10 23:00N 58°52' E 005°45'0 0.0
2017-Dec-10 22:30N 58°52' E 005°45'0 0.0
2017-Dec-10 21:59N 58°52' E 005°45'0 0.0
2017-Dec-10 21:30N 58°52' E 005°45'4 7.5
2017-Dec-10 21:00N 58°56' E 005°46'612.2
2017-Dec-10 20:30N 59°02' E 005°45'612.3
2017-Dec-10 20:00N 59°02' E 005°33'714.4
2017-Dec-10 19:30N 58°55' E 005°33'713.9
2017-Dec-10 19:00N 58°48' E 005°28'713.7
2017-Dec-10 18:30N 58°42' E 005°29'714.7
2017-Dec-10 18:00N 58°35' E 005°35'714.0
2017-Dec-10 17:30N 58°29' E 005°42'714.8
2017-Dec-10 17:00N 58°24' E 005°52'814.7
2017-Dec-10 16:30N 58°19' E 006°03'815.2
2017-Dec-10 16:00N 58°14' E 006°14'714.7
2017-Dec-10 15:30N 58°09' E 006°24'815.3
2017-Dec-10 15:00N 58°04' E 006°35'715.0
2017-Dec-10 14:30N 58°01' E 006°47'714.9
2017-Dec-10 14:00N 57°58' E 007°01'815.1
2017-Dec-10 13:30N 57°56' E 007°14'815.8
2017-Dec-10 13:00N 57°57' E 007°29'815.3
2017-Dec-10 12:30N 57°58' E 007°43'815.1
2017-Dec-10 12:00N 58°01' E 007°57'611.9
2017-Dec-10 11:30N 58°06' E 008°03'3 6.8
2017-Dec-10 11:00N 58°09' E 008°02'0 0.0
2017-Dec-10 10:29N 58°09' E 008°02'0 0.0
2017-Dec-10 10:00N 58°09' E 008°02'0 0.0
2017-Dec-10 09:30N 58°09' E 008°02'0 0.0
2017-Dec-10 09:00N 58°09' E 008°02'0 0.3
2017-Dec-10 08:30N 58°09' E 008°02'612.2
2017-Dec-10 08:00N 58°04' E 008°08'815.1
2017-Dec-10 07:30N 58°07' E 008°21'815.3
2017-Dec-10 07:00N 58°12' E 008°33'815.9
2017-Dec-10 06:30N 58°16' E 008°46'816.3
2017-Dec-10 06:00N 58°21' E 008°58'816.5
2017-Dec-10 05:30N 58°26' E 009°11'815.9
2017-Dec-10 05:00N 58°31' E 009°23'815.5
2017-Dec-10 04:30N 58°35' E 009°35'815.4
2017-Dec-10 04:00N 58°40' E 009°47'815.0
2017-Dec-10 03:30N 58°44' E 009°59'714.9
2017-Dec-10 03:00N 58°49' E 010°10'815.3
2017-Dec-10 02:30N 58°53' E 010°22'815.5
2017-Dec-10 02:00N 58°58' E 010°34'714.7
2017-Dec-10 01:30N 59°02' E 010°46'612.7
2017-Dec-10 01:00N 59°02' E 010°58'714.5
2017-Dec-10 00:30N 59°09' E 010°58'2 4.1
2017-Dec-10 00:01N 59°11' E 010°57'0 0.0
2017-Dec-09 23:31N 59°11' E 010°57'0 0.0
2017-Dec-09 23:00N 59°11' E 010°57'0 0.0
2017-Dec-09 22:31N 59°11' E 010°57'0 0.0
2017-Dec-09 22:01N 59°11' E 010°57'0 0.0
2017-Dec-09 21:31N 59°11' E 010°57'0 0.0
2017-Dec-09 21:01N 59°11' E 010°57'0 0.0
2017-Dec-09 20:30N 59°11' E 010°57'0 0.1
2017-Dec-09 20:00N 59°11' E 010°57'0 0.0
2017-Dec-09 19:31N 59°11' E 010°57'0 0.0
2017-Dec-09 19:01N 59°11' E 010°57'0 0.0
2017-Dec-09 18:30N 59°11' E 010°57'0 0.0
2017-Dec-09 18:01N 59°11' E 010°57'0 0.0
2017-Dec-09 17:31N 59°11' E 010°57'0 0.0
2017-Dec-09 17:01N 59°11' E 010°57'0 0.0
2017-Dec-09 16:30N 59°11' E 010°57'0 0.0
2017-Dec-09 16:00N 59°11' E 010°57'0 0.0
2017-Dec-09 15:30N 59°11' E 010°57'0 0.0
2017-Dec-09 15:00N 59°11' E 010°57'0 0.0
2017-Dec-09 14:31N 59°11' E 010°57'0 0.0
2017-Dec-09 14:01N 59°11' E 010°57'0 0.0
2017-Dec-09 13:30N 59°11' E 010°57'0 0.2
2017-Dec-09 13:00N 59°11' E 010°57'0 0.8
2017-Dec-09 12:31N 59°11' E 010°57'2 3.2
2017-Dec-09 12:00N 59°09' E 010°58'713.9
2017-Dec-09 11:30N 59°02' E 010°58'713.3
2017-Dec-09 11:01N 58°56' E 011°03'714.1
2017-Dec-09 10:30N 58°49' E 011°05'714.3
2017-Dec-09 10:01N 58°42' E 011°01'714.9
2017-Dec-09 09:30N 58°35' E 010°57'815.0
2017-Dec-09 09:00N 58°28' E 010°56'714.5
2017-Dec-09 08:30N 58°21' E 011°00'714.5
2017-Dec-09 08:01N 58°14' E 011°04'714.3
2017-Dec-09 07:31N 58°07' E 011°08'714.0
2017-Dec-09 07:00N 58°00' E 011°11'713.8
2017-Dec-09 06:30N 57°53' E 011°14'613.0
2017-Dec-09 06:01N 57°47' E 011°16'713.1
2017-Dec-09 05:30N 57°41' E 011°20'612.7
2017-Dec-09 05:00N 57°35' E 011°23'713.0
2017-Dec-09 04:31N 57°29' E 011°27'713.3
2017-Dec-09 04:01N 57°22' E 011°31'714.0
2017-Dec-09 03:30N 57°16' E 011°35'713.6
2017-Dec-09 03:00N 57°09' E 011°39'63 1.4
2017-Dec-07 06:42N 56°09' E 012°10'212.2
2017-Dec-07 06:30N 56°10' E 012°14'611.9
2017-Dec-07 06:00N 56°10' E 012°24'612.9
2017-Dec-07 05:30N 56°07' E 012°34'612.7
2017-Dec-07 05:01N 56°02' E 012°40'713.3
2017-Dec-07 04:31N 55°55' E 012°44'713.3
2017-Dec-07 04:00N 55°49' E 012°43'713.4
2017-Dec-07 03:30N 55°42' E 012°41'612.3
2017-Dec-07 03:00N 55°36' E 012°42'612.2
2017-Dec-07 02:30N 55°30' E 012°42'713.2
2017-Dec-07 02:00N 55°23' E 012°41'611.2
2017-Dec-07 01:30N 55°18' E 012°44'712.7
2017-Dec-07 00:57N 55°15' E 012°55'611.6
2017-Dec-07 00:29N 55°11' E 013°02'2813.0
2017-Dec-06 22:21N 54°49' E 013°31'612.7
2017-Dec-06 21:53N 54°44' E 013°37'  
2017-Dec-04 08:19N 55°04' E 012°46'514.9
2017-Dec-04 07:57N 55°09' E 012°42'614.5
2017-Dec-04 07:31N 55°15' E 012°38'714.5
2017-Dec-04 07:01N 55°22' E 012°40'714.6
2017-Dec-04 06:30N 55°30' E 012°42'713.7
2017-Dec-04 06:00N 55°36' E 012°42'714.1
2017-Dec-04 05:30N 55°43' E 012°41'714.6
2017-Dec-04 05:01N 55°51' E 012°41'714.3
2017-Dec-04 04:30N 55°58' E 012°38'713.5
2017-Dec-04 04:00N 56°04' E 012°36'815.2
2017-Dec-04 03:30N 56°09' E 012°26'6414.5
2017-Dec-03 23:07N 57°07' E 011°38'214.3
2017-Dec-03 22:59N 57°09' E 011°37'714.8
2017-Dec-03 22:30N 57°16' E 011°32'714.9
2017-Dec-03 22:00N 57°23' E 011°27'714.6
2017-Dec-03 21:31N 57°29' E 011°21'714.2
2017-Dec-03 21:01N 57°34' E 011°12'714.8
2017-Dec-03 20:30N 57°39' E 011°01'714.9
2017-Dec-03 20:00N 57°44' E 010°51'714.9
2017-Dec-03 19:30N 57°47' E 010°38'815.9
2017-Dec-03 19:00N 57°48' E 010°23'6315.1
2017-Dec-03 14:49N 57°53' E 008°24'514.0
2017-Dec-03 14:29N 57°53' E 008°16'714.5
2017-Dec-03 14:00N 57°54' E 008°02'714.3
2017-Dec-03 13:30N 57°54' E 007°49'714.9
2017-Dec-03 13:00N 57°55' E 007°35'815.3
2017-Dec-03 12:29N 57°56' E 007°21'715.4
2017-Dec-03 12:00N 57°57' E 007°07'815.6
2017-Dec-03 11:30N 57°59' E 006°53'815.5
2017-Dec-03 11:01N 58°02' E 006°40'815.6
2017-Dec-03 10:30N 58°07' E 006°27'816.2
2017-Dec-03 10:00N 58°13' E 006°17'815.5
2017-Dec-03 09:30N 58°18' E 006°07'713.8
2017-Dec-03 09:00N 58°24' E 005°60'2 4.8
2017-Dec-03 08:30N 58°26' E 005°59'0 0.0
2017-Dec-03 08:00N 58°26' E 005°59'0 0.0
2017-Dec-03 07:30N 58°26' E 005°59'0 0.0
2017-Dec-03 07:00N 58°26' E 005°59'0 0.0
2017-Dec-03 06:30N 58°26' E 005°59'0 0.0
2017-Dec-03 06:00N 58°26' E 005°59'0 0.0
2017-Dec-03 05:30N 58°26' E 005°59'0 0.0
2017-Dec-03 05:00N 58°26' E 005°59'0 0.0
2017-Dec-03 04:30N 58°26' E 005°59'0 0.0
2017-Dec-03 04:00N 58°26' E 005°59'0 0.0
2017-Dec-03 03:30N 58°26' E 005°59'0 0.0
2017-Dec-03 03:00N 58°26' E 005°59'0 0.0
2017-Dec-03 02:30N 58°26' E 005°59'0 0.0
2017-Dec-03 02:00N 58°26' E 005°59'3 6.9
2017-Dec-03 01:30N 58°23' E 005°59'714.3
2017-Dec-03 01:00N 58°26' E 005°47'815.2
2017-Dec-03 00:30N 58°31' E 005°36'815.5
2017-Dec-03 00:00N 58°38' E 005°29'815.3
2017-Dec-02 23:30N 58°45' E 005°25'714.4
2017-Dec-02 23:01N 58°52' E 005°30'815.2
2017-Dec-02 22:30N 58°59' E 005°33'5 9.1
2017-Dec-02 22:00N 59°01' E 005°41'510.1
2017-Dec-02 21:30N 58°58' E 005°48'611.5
2017-Dec-02 21:00N 58°52' E 005°45'0 0.0
2017-Dec-02 20:30N 58°52' E 005°45'0 0.0
2017-Dec-02 20:00N 58°52' E 005°45'0 0.0
2017-Dec-02 19:30N 58°52' E 005°45'1 2.4
2017-Dec-02 19:00N 58°53' E 005°46'714.1
2017-Dec-02 18:30N 59°00' E 005°48'611.5
2017-Dec-02 18:00N 59°02' E 005°37'714.4
2017-Dec-02 17:30N 59°07' E 005°27'612.5
2017-Dec-02 17:00N 59°12' E 005°21'714.0
2017-Dec-02 16:30N 59°19' E 005°19'1 2.0
2017-Dec-02 16:00N 59°20' E 005°18'0 0.9
2017-Dec-02 15:30N 59°20' E 005°19'613.0
2017-Dec-02 15:00N 59°26' E 005°14'714.0
2017-Dec-02 14:30N 59°33' E 005°12'814.9
2017-Dec-02 14:00N 59°39' E 005°20'815.4
2017-Dec-02 13:30N 59°45' E 005°30'713.6
2017-Dec-02 13:00N 59°52' E 005°33'612.7
2017-Dec-02 12:30N 59°57' E 005°26'612.7
2017-Dec-02 12:00N 60°02' E 005°19'713.6
2017-Dec-02 11:30N 60°09' E 005°16'713.6
2017-Dec-02 11:00N 60°15' E 005°09'713.6
2017-Dec-02 10:30N 60°22' E 005°10'613.1
2017-Dec-02 10:00N 60°27' E 005°01'713.4
2017-Dec-02 09:30N 60°33' E 004°56'713.1
2017-Dec-02 09:00N 60°39' E 004°51'713.8
2017-Dec-02 08:30N 60°45' E 004°46'510.7
2017-Dec-02 08:00N 60°51' E 004°48'714.6
2017-Dec-02 07:30N 60°49' E 005°03'2 3.7
2017-Dec-02 07:00N 60°48' E 005°05'611.5
2017-Dec-02 06:30N 60°51' E 004°55'611.8
2017-Dec-02 06:00N 60°55' E 004°46'713.7
2017-Dec-02 05:29N 61°02' E 004°45'612.6
2017-Dec-02 05:00N 61°08' E 004°45'713.0
2017-Dec-02 04:30N 61°14' E 004°43'613.0
2017-Dec-02 04:00N 61°20' E 004°48'612.8
2017-Dec-02 03:30N 61°26' E 004°53'713.3
2017-Dec-02 03:00N 61°32' E 005°00'612.4
2017-Dec-02 02:30N 61°38' E 004°59'612.8
2017-Dec-02 02:00N 61°45' E 004°59'713.6
2017-Dec-02 01:30N 61°49' E 005°10'4 7.2
2017-Dec-02 01:00N 61°53' E 005°10'4 7.6
2017-Dec-02 00:30N 61°56' E 005°08'0 0.0
2017-Dec-02 00:00N 61°56' E 005°08'0 0.0
2017-Dec-01 23:30N 61°56' E 005°08'0 0.3
2017-Dec-01 22:59N 61°56' E 005°09'510.2
2017-Dec-01 22:29N 62°02' E 005°09'713.6
2017-Dec-01 22:00N 62°08' E 005°05'511.1
2017-Dec-01 21:30N 62°13' E 005°09'713.1
2017-Dec-01 21:00N 62°16' E 005°21'713.4
2017-Dec-01 20:30N 62°19' E 005°34'3 5.9
2017-Dec-01 20:00N 62°19' E 005°40'0 0.0
2017-Dec-01 19:30N 62°19' E 005°40'0 0.0
2017-Dec-01 19:00N 62°19' E 005°40'0 0.0
2017-Dec-01 18:30N 62°19' E 005°40'0 0.0
2017-Dec-01 18:00N 62°19' E 005°40'1 2.6
2017-Dec-01 17:31N 62°19' E 005°43'  

Dump ship's entire track history